Time;durP1;ratioP1;P1;durP2;ratioP2;P2;SDS_P1;SDS_P2;PMS_P1;PMS_P2;Temp;Humidity;BMP_temperature;BMP_pressure;BME280_temperature;BME280_humidity;BME280_pressure;Samples;Min_cycle;Max_cycle;Signal;HPM_P1;HPM_P2
2023/03/28 00:01:09;;;;;;;0.52;0.52;;;3.10;99.90;;;;;;4358446;32;20106;-75
2023/03/28 00:03:38;;;;;;;0.40;0.40;;;3.10;99.90;;;;;;4357064;32;20090;-75
2023/03/28 00:06:08;;;;;;;0.47;0.47;;;3.00;99.90;;;;;;4359018;32;20070;-75
2023/03/28 00:08:35;;;;;;;1.37;1.23;;;3.20;99.90;;;;;;4365327;32;20538;-75
2023/03/28 00:11:04;;;;;;;0.30;0.30;;;3.20;99.90;;;;;;4376867;32;20085;-75
2023/03/28 00:13:30;;;;;;;0.30;0.30;;;3.30;99.90;;;;;;4376563;32;20078;-74
2023/03/28 00:16:02;;;;;;;0.50;0.50;;;3.30;99.90;;;;;;4374576;32;20101;-74
2023/03/28 00:18:28;;;;;;;0.45;0.45;;;3.20;99.90;;;;;;4375374;32;20776;-74
2023/03/28 00:20:54;;;;;;;0.40;0.40;;;3.20;99.90;;;;;;4375922;32;20074;-74
2023/03/28 00:23:19;;;;;;;0.32;0.32;;;3.10;99.90;;;;;;4377157;32;20070;-75
2023/03/28 00:25:45;;;;;;;4.35;0.50;;;3.00;99.90;;;;;;4373685;32;20125;-75
2023/03/28 00:28:11;;;;;;;0.40;0.40;;;3.00;99.90;;;;;;4373857;32;20487;-75
2023/03/28 00:30:37;;;;;;;0.30;0.30;;;3.00;99.90;;;;;;4375060;32;20134;-74
2023/03/28 00:33:04;;;;;;;0.40;0.40;;;2.90;99.90;;;;;;4376707;32;20074;-75
2023/03/28 00:35:31;;;;;;;0.40;0.40;;;2.90;99.90;;;;;;4373442;32;20534;-74
2023/03/28 00:37:57;;;;;;;0.40;0.40;;;2.90;99.90;;;;;;4376084;32;20083;-75
2023/03/28 00:40:25;;;;;;;0.30;0.30;;;2.80;99.90;;;;;;4372783;32;20067;-74
2023/03/28 00:42:51;;;;;;;0.52;0.52;;;2.90;99.90;;;;;;4375401;32;20078;-74
2023/03/28 00:45:20;;;;;;;0.30;0.30;;;2.80;99.90;;;;;;4375897;32;20809;-74
2023/03/28 00:47:53;;;;;;;0.40;0.40;;;2.80;99.90;;;;;;4373397;32;20187;-74
2023/03/28 00:50:26;;;;;;;0.40;0.40;;;2.70;99.90;;;;;;4376686;32;20094;-75
2023/03/28 00:53:12;;;;;;;0.70;0.70;;;2.70;99.90;;;;;;4375206;32;20083;-75
2023/03/28 00:55:45;;;;;;;1.17;0.88;;;2.60;99.90;;;;;;4362324;32;20118;-75
2023/03/28 00:58:15;;;;;;;0.40;0.40;;;2.60;99.90;;;;;;4378670;32;20062;-75
2023/03/28 01:00:40;;;;;;;0.40;0.40;;;2.60;99.90;;;;;;4375934;32;20094;-74
2023/03/28 01:03:06;;;;;;;0.52;0.52;;;2.50;99.90;;;;;;4364383;32;20118;-74
2023/03/28 01:05:33;;;;;;;0.75;0.75;;;2.50;99.90;;;;;;4376353;32;20083;-74
2023/03/28 01:08:08;;;;;;;0.30;0.30;;;2.50;99.90;;;;;;4376531;32;20115;-74
2023/03/28 01:10:34;;;;;;;1.15;0.55;;;2.50;99.90;;;;;;4371805;32;20090;-74
2023/03/28 01:13:02;;;;;;;0.40;0.40;;;2.50;99.90;;;;;;4374214;32;20111;-74
2023/03/28 01:15:28;;;;;;;0.93;0.93;;;2.40;99.90;;;;;;4374658;32;20169;-74
2023/03/28 01:17:55;;;;;;;0.40;0.40;;;2.40;99.90;;;;;;4375331;32;20105;-74
2023/03/28 01:20:29;;;;;;;0.30;0.30;;;2.40;99.90;;;;;;4374196;32;20070;-74
2023/03/28 01:23:15;;;;;;;0.40;0.40;;;2.40;99.90;;;;;;4372953;32;20073;-74
2023/03/28 01:25:53;;;;;;;0.40;0.40;;;2.40;99.90;;;;;;4362063;32;20087;-74
2023/03/28 01:28:37;;;;;;;1.08;0.62;;;2.40;99.90;;;;;;4362000;32;20083;-74
2023/03/28 01:31:22;;;;;;;0.40;0.40;;;2.50;99.90;;;;;;4373110;32;20086;-74
2023/03/28 01:33:54;;;;;;;0.40;0.40;;;2.40;99.90;;;;;;4373227;32;20109;-74
2023/03/28 01:36:57;;;;;;;0.50;0.50;;;2.40;99.90;;;;;;4356748;32;20096;-75
2023/03/28 01:39:38;;;;;;;0.40;0.40;;;2.40;99.90;;;;;;4365818;32;20185;-74
2023/03/28 01:42:11;;;;;;;1.73;1.45;;;2.50;99.90;;;;;;4370536;32;20062;-74
2023/03/28 01:44:49;;;;;;;0.37;0.37;;;2.60;99.90;;;;;;4370293;32;20439;-74
2023/03/28 01:47:25;;;;;;;0.40;0.40;;;2.60;99.90;;;;;;4374190;32;20129;-74
2023/03/28 01:50:17;;;;;;;0.40;0.40;;;2.60;99.90;;;;;;4374469;32;20099;-73
2023/03/28 01:52:53;;;;;;;0.40;0.40;;;2.60;99.90;;;;;;4363574;32;20070;-74
2023/03/28 01:55:33;;;;;;;0.32;0.32;;;2.70;99.90;;;;;;4374639;32;20087;-74
2023/03/28 01:58:12;;;;;;;0.45;0.45;;;2.70;99.90;;;;;;4375752;32;20070;-74
2023/03/28 02:00:41;;;;;;;0.40;0.40;;;2.80;99.90;;;;;;4358863;32;20087;-74
2023/03/28 02:03:17;;;;;;;0.52;0.52;;;2.80;99.90;;;;;;4375607;32;20074;-74
2023/03/28 02:05:45;;;;;;;0.40;0.40;;;2.80;99.90;;;;;;4373396;32;20070;-74
2023/03/28 02:08:12;;;;;;;0.50;0.50;;;2.70;99.90;;;;;;4370435;32;21156;-73
2023/03/28 02:10:41;;;;;;;0.55;0.55;;;2.60;99.90;;;;;;4372653;32;20079;-74
2023/03/28 02:13:18;;;;;;;1.95;1.10;;;2.60;99.90;;;;;;4378139;32;20519;-73
2023/03/28 02:15:47;;;;;;;0.40;0.40;;;2.60;99.90;;;;;;4373485;32;20208;-74
2023/03/28 02:18:20;;;;;;;0.40;0.40;;;2.70;99.90;;;;;;4375137;32;20099;-74
2023/03/28 02:20:51;;;;;;;0.45;0.45;;;2.70;99.90;;;;;;4371146;32;20503;-73
2023/03/28 02:23:22;;;;;;;0.30;0.30;;;2.70;99.90;;;;;;4376443;32;20425;-72
2023/03/28 02:25:48;;;;;;;0.30;0.30;;;2.70;99.90;;;;;;4374542;32;20085;-73
2023/03/28 02:28:15;;;;;;;3.80;1.08;;;2.40;99.90;;;;;;4371640;32;20078;-75
2023/03/28 02:30:40;;;;;;;0.82;0.82;;;2.20;99.90;;;;;;4373048;32;20103;-74
2023/03/28 02:33:27;;;;;;;0.40;0.40;;;2.00;99.90;;;;;;4372217;32;20063;-74
2023/03/28 02:36:05;;;;;;;0.60;0.60;;;2.00;99.90;;;;;;4357868;32;20078;-74
2023/03/28 02:38:45;;;;;;;0.40;0.40;;;2.00;99.90;;;;;;4372795;32;20803;-74
2023/03/28 02:41:37;;;;;;;0.60;0.60;;;2.00;99.90;;;;;;4367448;32;20151;-74
2023/03/28 02:44:31;;;;;;;0.40;0.40;;;2.00;99.90;;;;;;4361290;32;20103;-74
2023/03/28 02:47:20;;;;;;;0.40;0.40;;;2.00;99.90;;;;;;4361906;32;20103;-75
2023/03/28 02:50:02;;;;;;;0.30;0.30;;;2.00;99.90;;;;;;4370957;32;20089;-74
2023/03/28 02:52:55;;;;;;;0.30;0.30;;;2.00;99.90;;;;;;4356535;32;20521;-75
2023/03/28 02:55:37;;;;;;;0.50;0.50;;;2.10;99.90;;;;;;4362709;32;20070;-75
2023/03/28 02:58:09;;;;;;;0.40;0.40;;;2.00;99.90;;;;;;4369045;32;20094;-73
2023/03/28 03:00:35;;;;;;;0.30;0.30;;;2.00;99.90;;;;;;4373327;32;20102;-74
2023/03/28 03:03:02;;;;;;;0.30;0.30;;;1.90;99.90;;;;;;4372522;32;20118;-74
2023/03/28 03:05:28;;;;;;;0.37;0.37;;;1.90;99.90;;;;;;4371814;32;20098;-73
2023/03/28 03:07:55;;;;;;;1.42;1.20;;;1.90;99.90;;;;;;4372425;32;20067;-73
2023/03/28 03:10:21;;;;;;;1.45;1.23;;;1.90;99.90;;;;;;4372702;32;20078;-74
2023/03/28 03:12:46;;;;;;;0.30;0.30;;;1.90;99.90;;;;;;4372103;32;20566;-74
2023/03/28 03:15:15;;;;;;;0.30;0.30;;;1.80;99.90;;;;;;4372911;32;20142;-74
2023/03/28 03:17:41;;;;;;;0.30;0.30;;;1.90;99.90;;;;;;4375850;32;20572;-74
2023/03/28 03:20:08;;;;;;;0.37;0.37;;;2.00;99.90;;;;;;4373202;32;20089;-73
2023/03/28 03:22:35;;;;;;;0.30;0.30;;;1.90;99.90;;;;;;4370333;32;20082;-74
2023/03/28 03:25:05;;;;;;;0.47;0.43;;;2.00;99.90;;;;;;4373575;32;20554;-74
2023/03/28 03:27:31;;;;;;;0.30;0.30;;;2.00;99.90;;;;;;4374435;32;20161;-73
2023/03/28 03:29:57;;;;;;;0.40;0.40;;;2.00;99.90;;;;;;4374132;32;20102;-73
2023/03/28 03:32:22;;;;;;;0.45;0.45;;;2.10;99.90;;;;;;4373848;32;20431;-75
2023/03/28 03:34:48;;;;;;;0.50;0.50;;;2.10;99.90;;;;;;4374465;32;20478;-75
2023/03/28 03:37:16;;;;;;;0.40;0.40;;;2.10;99.90;;;;;;4374038;32;20062;-74
2023/03/28 03:39:43;;;;;;;0.40;0.40;;;2.10;99.90;;;;;;4372675;32;20476;-75
2023/03/28 03:42:09;;;;;;;0.37;0.37;;;2.10;99.90;;;;;;4373919;32;20067;-75
2023/03/28 03:44:34;;;;;;;0.40;0.40;;;2.00;99.90;;;;;;4371863;32;20066;-75
2023/03/28 03:47:00;;;;;;;1.12;1.02;;;2.00;99.90;;;;;;4375132;32;20133;-74
2023/03/28 03:49:25;;;;;;;1.08;0.95;;;1.90;99.90;;;;;;4374342;32;20086;-74
2023/03/28 03:51:51;;;;;;;0.40;0.40;;;1.90;99.90;;;;;;4376380;32;20511;-74
2023/03/28 03:54:16;;;;;;;0.40;0.40;;;1.90;99.90;;;;;;4373462;32;20098;-74
2023/03/28 03:56:42;;;;;;;0.40;0.40;;;1.90;99.90;;;;;;4374198;32;20098;-74
2023/03/28 03:59:07;;;;;;;0.35;0.35;;;1.90;99.90;;;;;;4372724;32;20550;-75
2023/03/28 04:01:33;;;;;;;0.40;0.40;;;1.90;99.90;;;;;;4375261;32;20118;-75
2023/03/28 04:03:59;;;;;;;0.45;0.45;;;2.00;99.90;;;;;;4376853;32;20079;-75
2023/03/28 04:06:28;;;;;;;0.30;0.30;;;2.00;99.90;;;;;;4373750;32;20086;-73
2023/03/28 04:08:53;;;;;;;0.30;0.30;;;1.90;99.90;;;;;;4375324;32;20581;-73
2023/03/28 04:11:19;;;;;;;0.40;0.40;;;1.90;99.90;;;;;;4376442;32;20089;-73
2023/03/28 04:13:44;;;;;;;0.30;0.30;;;1.90;99.90;;;;;;4375475;32;20095;-73
2023/03/28 04:16:12;;;;;;;0.40;0.40;;;1.90;99.90;;;;;;4372821;32;20107;-73
2023/03/28 04:18:38;;;;;;;0.30;0.30;;;1.90;99.90;;;;;;4374743;32;20102;-75
2023/03/28 04:21:04;;;;;;;0.30;0.30;;;1.80;99.90;;;;;;4370404;32;20089;-75
2023/03/28 04:23:29;;;;;;;0.37;0.37;;;1.80;99.90;;;;;;4378080;32;20586;-76
2023/03/28 04:25:56;;;;;;;0.40;0.40;;;1.80;99.90;;;;;;4374397;32;20102;-75
2023/03/28 04:28:24;;;;;;;0.60;0.60;;;1.80;99.90;;;;;;4375334;32;20601;-75
2023/03/28 04:30:53;;;;;;;0.40;0.40;;;1.70;99.90;;;;;;4375961;32;20079;-73
2023/03/28 04:33:23;;;;;;;1.25;1.15;;;1.70;99.90;;;;;;4375897;32;20452;-73
2023/03/28 04:35:59;;;;;;;0.50;0.50;;;1.70;99.90;;;;;;4371490;32;20075;-73
2023/03/28 04:38:26;;;;;;;0.40;0.40;;;1.70;99.90;;;;;;4374911;32;20145;-74
2023/03/28 04:40:56;;;;;;;3.30;1.25;;;1.60;99.90;;;;;;4375979;32;20070;-73
2023/03/28 04:43:24;;;;;;;0.40;0.40;;;1.60;99.90;;;;;;4374156;32;20083;-74
2023/03/28 04:45:51;;;;;;;0.30;0.30;;;1.60;99.90;;;;;;4372516;32;20126;-74
2023/03/28 04:48:17;;;;;;;0.60;0.60;;;1.60;99.90;;;;;;4374985;32;20094;-74
2023/03/28 04:50:43;;;;;;;1.55;1.45;;;1.70;99.90;;;;;;4376799;32;20062;-74
2023/03/28 04:53:08;;;;;;;0.30;0.30;;;1.70;99.90;;;;;;4376764;32;20070;-73
2023/03/28 04:55:34;;;;;;;0.30;0.30;;;1.70;99.90;;;;;;4373783;32;20498;-74
2023/03/28 04:57:59;;;;;;;0.40;0.40;;;1.70;99.90;;;;;;4373919;32;20116;-74
2023/03/28 05:00:26;;;;;;;0.30;0.30;;;1.70;99.90;;;;;;4370412;32;20098;-74
2023/03/28 05:02:54;;;;;;;0.40;0.40;;;1.70;99.90;;;;;;4370948;32;20365;-73
2023/03/28 05:05:20;;;;;;;0.40;0.40;;;1.90;99.90;;;;;;4368248;32;20145;-74
2023/03/28 05:07:46;;;;;;;0.40;0.40;;;1.80;99.90;;;;;;4373715;32;20094;-74
2023/03/28 05:10:11;;;;;;;0.35;0.35;;;1.70;99.90;;;;;;4374852;32;20090;-74
2023/03/28 05:12:37;;;;;;;0.30;0.30;;;1.70;99.90;;;;;;4374679;32;20141;-74
2023/03/28 05:15:04;;;;;;;0.52;0.52;;;1.70;99.90;;;;;;4372224;32;20090;-74
2023/03/28 05:17:29;;;;;;;0.30;0.30;;;1.70;99.90;;;;;;4362566;32;20095;-74
2023/03/28 05:19:55;;;;;;;0.40;0.40;;;1.70;99.90;;;;;;4367478;32;20454;-73
2023/03/28 05:22:20;;;;;;;0.40;0.40;;;1.70;99.90;;;;;;4374343;32;20125;-73
2023/03/28 05:24:46;;;;;;;0.47;0.47;;;1.70;99.90;;;;;;4374527;32;20106;-74
2023/03/28 05:27:11;;;;;;;0.40;0.40;;;1.70;99.90;;;;;;4362576;32;20086;-75
2023/03/28 05:29:37;;;;;;;0.70;0.70;;;1.80;99.90;;;;;;4369605;32;20098;-75
2023/03/28 05:32:03;;;;;;;0.40;0.40;;;1.70;99.90;;;;;;4352666;32;20114;-75
2023/03/28 05:34:28;;;;;;;0.40;0.40;;;1.80;99.90;;;;;;4372931;32;20094;-75
2023/03/28 05:36:56;;;;;;;0.30;0.30;;;1.90;99.90;;;;;;4370153;32;20122;-76
2023/03/28 05:39:22;;;;;;;0.30;0.30;;;1.80;99.90;;;;;;4369826;32;20078;-75
2023/03/28 05:41:48;;;;;;;0.40;0.40;;;2.00;99.90;;;;;;4370929;32;20078;-74
2023/03/28 05:44:14;;;;;;;0.35;0.35;;;1.90;99.90;;;;;;4370626;32;20154;-74
2023/03/28 05:46:39;;;;;;;0.32;0.32;;;1.80;99.90;;;;;;4370295;32;20510;-76
2023/03/28 05:49:05;;;;;;;0.40;0.40;;;1.80;99.90;;;;;;4370744;32;20106;-76
2023/03/28 05:51:30;;;;;;;0.40;0.40;;;1.90;99.90;;;;;;4370253;32;20078;-75
2023/03/28 05:53:56;;;;;;;0.40;0.40;;;1.90;99.90;;;;;;4364525;32;20074;-75
2023/03/28 05:56:21;;;;;;;0.40;0.40;;;2.00;99.90;;;;;;4353800;32;20094;-73
2023/03/28 05:58:47;;;;;;;0.40;0.40;;;2.10;99.90;;;;;;4356611;32;20112;-73
2023/03/28 06:01:16;;;;;;;2.10;0.85;;;2.20;99.90;;;;;;4355076;32;20106;-73
2023/03/28 06:03:44;;;;;;;0.50;0.50;;;2.00;99.90;;;;;;4354707;32;20105;-73
2023/03/28 06:06:10;;;;;;;0.40;0.40;;;2.00;99.90;;;;;;4355558;32;20095;-72
2023/03/28 06:08:36;;;;;;;0.50;0.50;;;2.00;99.90;;;;;;4356178;32;20799;-73
2023/03/28 06:11:02;;;;;;;0.40;0.40;;;2.00;99.90;;;;;;4361067;32;20106;-73
2023/03/28 06:13:28;;;;;;;0.30;0.30;;;1.90;99.90;;;;;;4360550;32;20098;-74
2023/03/28 06:15:54;;;;;;;0.40;0.40;;;1.90;99.90;;;;;;4361931;32;20432;-74
2023/03/28 06:18:19;;;;;;;2.47;1.40;;;2.00;99.90;;;;;;4355484;32;20086;-75
2023/03/28 06:20:45;;;;;;;0.55;0.55;;;2.10;99.90;;;;;;4355367;32;20130;-74
2023/03/28 06:23:10;;;;;;;0.60;0.60;;;2.10;99.90;;;;;;4356640;32;20106;-75
2023/03/28 06:25:36;;;;;;;2.95;1.40;;;2.10;99.90;;;;;;4354477;32;20094;-73
2023/03/28 06:28:01;;;;;;;0.30;0.30;;;2.10;99.90;;;;;;4360600;32;20086;-74
2023/03/28 06:30:27;;;;;;;0.37;0.37;;;2.20;99.90;;;;;;4358558;32;20086;-75
2023/03/28 06:32:52;;;;;;;0.30;0.30;;;2.30;99.90;;;;;;4355029;32;20176;-74
2023/03/28 06:35:18;;;;;;;0.50;0.50;;;2.30;99.90;;;;;;4357655;32;20101;-74
2023/03/28 06:37:44;;;;;;;0.40;0.40;;;2.40;99.90;;;;;;4357099;32;20090;-75
2023/03/28 06:40:09;;;;;;;0.40;0.40;;;2.50;99.90;;;;;;4359119;32;21656;-74
2023/03/28 06:42:36;;;;;;;0.30;0.30;;;2.50;99.90;;;;;;4351099;32;20181;-75
2023/03/28 06:45:02;;;;;;;0.40;0.40;;;2.50;99.90;;;;;;4358173;32;20260;-75
2023/03/28 06:47:28;;;;;;;0.40;0.40;;;2.60;99.90;;;;;;4344933;32;20111;-74
2023/03/28 06:49:54;;;;;;;1.10;0.95;;;2.70;99.90;;;;;;4350284;32;20082;-74
2023/03/28 06:52:21;;;;;;;0.32;0.32;;;2.80;99.90;;;;;;4352966;32;20093;-74
2023/03/28 06:54:47;;;;;;;0.52;0.52;;;2.80;99.90;;;;;;4358591;32;20083;-75
2023/03/28 06:57:13;;;;;;;0.40;0.40;;;2.90;99.90;;;;;;4353158;32;20188;-74
2023/03/28 06:59:38;;;;;;;0.75;0.75;;;2.90;99.90;;;;;;4347025;32;20110;-73
2023/03/28 07:02:04;;;;;;;0.43;0.43;;;2.90;99.90;;;;;;4350355;32;20106;-73
2023/03/28 07:04:33;;;;;;;0.50;0.50;;;3.00;99.90;;;;;;4351006;32;20102;-74
2023/03/28 07:06:59;;;;;;;0.30;0.30;;;3.10;99.90;;;;;;4354601;32;20086;-74
2023/03/28 07:09:25;;;;;;;0.47;0.47;;;3.10;99.90;;;;;;4350459;32;20589;-74
2023/03/28 07:11:51;;;;;;;0.40;0.40;;;3.10;99.90;;;;;;4352843;32;20099;-74
2023/03/28 07:14:17;;;;;;;0.40;0.40;;;3.10;99.90;;;;;;4347893;32;20889;-73
2023/03/28 07:16:44;;;;;;;0.93;0.93;;;3.20;99.90;;;;;;4355072;32;20191;-76
2023/03/28 07:19:09;;;;;;;0.30;0.30;;;3.30;99.90;;;;;;4354729;32;20471;-73
2023/03/28 07:21:35;;;;;;;0.40;0.40;;;3.40;99.90;;;;;;4352725;32;20102;-74
2023/03/28 07:24:00;;;;;;;0.30;0.30;;;3.30;99.90;;;;;;4355017;32;20093;-73
2023/03/28 07:26:26;;;;;;;0.35;0.35;;;3.20;99.90;;;;;;4351822;32;20074;-73
2023/03/28 07:28:54;;;;;;;0.30;0.30;;;3.20;99.90;;;;;;4355649;32;20106;-73
2023/03/28 07:31:20;;;;;;;0.40;0.40;;;3.20;99.90;;;;;;4351893;32;20097;-74
2023/03/28 07:33:56;;;;;;;0.30;0.30;;;3.20;99.90;;;;;;4351875;32;20111;-73
2023/03/28 07:36:22;;;;;;;0.37;0.37;;;3.30;99.90;;;;;;4353562;32;20132;-74
2023/03/28 07:38:47;;;;;;;9.75;3.12;;;3.40;99.90;;;;;;4366661;32;20059;-74
2023/03/28 07:41:13;;;;;;;0.32;0.32;;;3.40;99.90;;;;;;4359521;32;20096;-74
2023/03/28 07:43:39;;;;;;;0.30;0.30;;;3.50;99.90;;;;;;4359011;32;20164;-75
2023/03/28 07:46:07;;;;;;;0.40;0.40;;;3.50;99.90;;;;;;4363356;32;20078;-75
2023/03/28 07:48:34;;;;;;;0.50;0.50;;;3.60;99.90;;;;;;4358788;32;20105;-74
2023/03/28 07:51:00;;;;;;;0.40;0.40;;;3.60;99.90;;;;;;4354176;32;20778;-74
2023/03/28 07:53:26;;;;;;;0.40;0.40;;;3.80;99.90;;;;;;4339414;32;20851;-74
2023/03/28 07:55:53;;;;;;;0.30;0.30;;;3.90;99.90;;;;;;4346443;32;20114;-74
2023/03/28 07:58:20;;;;;;;0.40;0.40;;;3.90;99.90;;;;;;4347475;32;20105;-74
2023/03/28 08:00:46;;;;;;;0.40;0.40;;;3.80;99.90;;;;;;4347228;32;20106;-74
2023/03/28 08:03:12;;;;;;;0.32;0.32;;;3.90;99.90;;;;;;4355792;32;20550;-74
2023/03/28 08:05:38;;;;;;;0.37;0.37;;;3.90;99.90;;;;;;4355887;32;20090;-74
2023/03/28 08:08:05;;;;;;;0.30;0.30;;;4.00;99.90;;;;;;4366343;32;20646;-74
2023/03/28 08:10:31;;;;;;;0.30;0.30;;;4.10;99.90;;;;;;4361601;32;20519;-74
2023/03/28 08:12:57;;;;;;;0.40;0.40;;;4.10;99.90;;;;;;4360059;32;21021;-74
2023/03/28 08:15:22;;;;;;;0.35;0.35;;;4.30;99.90;;;;;;4351364;32;20290;-74
2023/03/28 08:17:50;;;;;;;0.30;0.30;;;4.30;99.90;;;;;;4357640;32;20132;-74
2023/03/28 08:20:16;;;;;;;0.30;0.30;;;4.30;99.90;;;;;;4356248;32;20181;-74
2023/03/28 08:22:41;;;;;;;0.82;0.82;;;4.40;99.90;;;;;;4350190;32;20090;-73
2023/03/28 08:25:08;;;;;;;0.40;0.40;;;4.50;99.90;;;;;;4361691;32;20640;-74
2023/03/28 08:27:34;;;;;;;0.30;0.30;;;4.50;99.90;;;;;;4358104;32;20079;-74
2023/03/28 08:30:00;;;;;;;0.30;0.30;;;4.60;99.90;;;;;;4357201;32;20395;-74
2023/03/28 08:32:25;;;;;;;0.30;0.30;;;4.70;99.90;;;;;;4355046;32;20099;-74
2023/03/28 08:34:51;;;;;;;0.60;0.60;;;4.70;99.90;;;;;;4358957;32;20114;-74
2023/03/28 08:37:20;;;;;;;3.90;0.90;;;4.90;99.90;;;;;;4359999;32;20469;-74
2023/03/28 08:39:46;;;;;;;0.30;0.30;;;4.80;99.90;;;;;;4360865;32;20182;-76
2023/03/28 08:42:27;;;;;;;7.30;0.77;;;4.80;99.90;;;;;;4367656;32;20079;-75
2023/03/28 08:45:15;;;;;;;0.37;0.37;;;4.60;99.90;;;;;;4360239;32;20097;-76
2023/03/28 08:48:03;;;;;;;0.32;0.32;;;4.80;99.90;;;;;;4355080;32;20143;-77
2023/03/28 08:50:49;;;;;;;0.40;0.40;;;5.00;99.90;;;;;;4356457;32;20099;-75
2023/03/28 08:53:29;;;;;;;0.25;0.25;;;5.20;99.90;;;;;;4352509;32;20157;-76
2023/03/28 08:55:56;;;;;;;0.30;0.30;;;5.50;99.90;;;;;;4368608;32;20145;-75
2023/03/28 08:58:25;;;;;;;0.30;0.30;;;5.60;99.90;;;;;;4361331;32;20086;-73
2023/03/28 09:00:52;;;;;;;0.30;0.30;;;5.50;99.90;;;;;;4359507;32;20139;-75
2023/03/28 09:03:20;;;;;;;0.30;0.30;;;5.40;99.90;;;;;;4361122;32;20098;-73
2023/03/28 09:06:10;;;;;;;0.35;0.35;;;5.50;99.90;;;;;;4365690;32;20875;-74
2023/03/28 09:09:00;;;;;;;0.30;0.30;;;5.50;99.90;;;;;;4362546;32;20090;-76
2023/03/28 09:11:35;;;;;;;0.30;0.30;;;5.70;99.90;;;;;;4368748;32;20212;-76
2023/03/28 09:14:15;;;;;;;0.73;0.73;;;5.90;99.90;;;;;;4369568;32;20892;-76
2023/03/28 09:16:55;;;;;;;0.37;0.37;;;6.20;99.90;;;;;;4371281;32;20070;-75
2023/03/28 09:19:36;;;;;;;0.40;0.40;;;6.20;99.90;;;;;;4372511;32;20078;-77
2023/03/28 09:22:25;;;;;;;0.30;0.30;;;6.40;99.90;;;;;;4350407;32;20276;-76
2023/03/28 09:25:17;;;;;;;0.28;0.28;;;6.60;99.90;;;;;;4351475;32;20099;-75
2023/03/28 09:27:53;;;;;;;2.20;0.50;;;6.70;99.60;;;;;;4336671;32;20093;-75
2023/03/28 09:30:23;;;;;;;0.30;0.30;;;6.60;98.80;;;;;;4359849;32;20111;-74
2023/03/28 09:32:54;;;;;;;0.35;0.35;;;6.50;97.20;;;;;;4362034;32;20078;-77
2023/03/28 09:35:21;;;;;;;0.32;0.32;;;6.40;97.60;;;;;;4369001;32;20645;-80
2023/03/28 09:37:52;;;;;;;0.30;0.30;;;6.50;99.10;;;;;;4367029;32;20107;-76
2023/03/28 09:40:28;;;;;;;0.30;0.30;;;6.60;99.20;;;;;;4365141;32;20834;-74
2023/03/28 09:43:25;;;;;;;0.30;0.30;;;6.70;97.10;;;;;;4359691;32;20091;-77
2023/03/28 09:45:59;;;;;;;0.30;0.30;;;6.50;98.10;;;;;;4353590;32;20090;-75
2023/03/28 09:48:29;;;;;;;0.20;0.20;;;6.30;99.50;;;;;;4365578;32;20226;-77
2023/03/28 09:50:57;;;;;;;0.30;0.30;;;6.40;97.10;;;;;;4367363;32;20125;-75
2023/03/28 09:53:27;;;;;;;0.40;0.40;;;5.90;98.40;;;;;;4372314;32;20081;-74
2023/03/28 09:55:56;;;;;;;0.30;0.30;;;6.00;99.40;;;;;;4368138;32;20758;-75
2023/03/28 09:58:21;;;;;;;0.50;0.50;;;6.20;99.40;;;;;;4372168;32;20071;-73
2023/03/28 10:00:50;;;;;;;0.40;0.40;;;6.40;99.60;;;;;;4364712;32;20113;-75
2023/03/28 10:03:21;;;;;;;0.30;0.30;;;6.50;98.60;;;;;;4370572;32;20174;-74
2023/03/28 10:05:50;;;;;;;0.30;0.30;;;6.60;98.70;;;;;;4368400;32;20606;-76
2023/03/28 10:08:26;;;;;;;0.30;0.30;;;6.30;98.00;;;;;;4373964;32;20107;-77
2023/03/28 10:10:59;;;;;;;0.30;0.30;;;6.10;98.30;;;;;;4370375;32;20091;-76
2023/03/28 10:13:25;;;;;;;0.30;0.30;;;6.10;98.10;;;;;;4366352;32;20098;-74
2023/03/28 10:15:57;;;;;;;1.33;0.93;;;6.20;98.70;;;;;;4361288;32;20214;-76
2023/03/28 10:18:26;;;;;;;0.30;0.30;;;6.30;98.80;;;;;;4353417;32;20142;-73
2023/03/28 10:20:52;;;;;;;0.30;0.30;;;6.40;98.80;;;;;;4355898;32;20133;-75
2023/03/28 10:23:21;;;;;;;0.30;0.30;;;6.70;99.60;;;;;;4365896;32;20078;-74
2023/03/28 10:25:50;;;;;;;0.30;0.30;;;7.10;98.90;;;;;;4363278;32;20308;-72
2023/03/28 10:28:28;;;;;;;0.30;0.30;;;7.20;98.60;;;;;;4355906;32;20091;-74
2023/03/28 10:30:56;;;;;;;0.30;0.30;;;7.20;97.30;;;;;;4365628;32;20471;-73
2023/03/28 10:33:33;;;;;;;0.30;0.30;;;7.70;97.50;;;;;;4363644;32;20066;-73
2023/03/28 10:36:04;;;;;;;0.30;0.30;;;7.90;94.70;;;;;;4354288;32;20200;-74
2023/03/28 10:38:35;;;;;;;0.30;0.30;;;8.20;95.40;;;;;;4363735;32;20082;-74
2023/03/28 10:41:09;;;;;;;0.30;0.30;;;8.50;92.30;;;;;;4359896;32;20161;-74
2023/03/28 10:43:39;;;;;;;0.30;0.30;;;8.70;93.50;;;;;;4358734;32;20324;-74
2023/03/28 10:46:12;;;;;;;0.40;0.40;;;8.70;91.80;;;;;;4359553;32;20137;-74
2023/03/28 10:48:38;;;;;;;0.20;0.20;;;8.40;93.00;;;;;;4359287;32;20082;-73
2023/03/28 10:51:09;;;;;;;0.28;0.28;;;8.60;93.60;;;;;;4352817;32;20090;-74
2023/03/28 10:54:04;;;;;;;0.30;0.30;;;8.50;92.80;;;;;;4357339;32;20549;-75
2023/03/28 10:56:37;;;;;;;0.20;0.20;;;8.60;91.60;;;;;;4349306;32;20141;-75
2023/03/28 10:59:31;;;;;;;0.30;0.30;;;8.40;91.50;;;;;;4353750;32;20560;-74
2023/03/28 11:02:25;;;;;;;0.35;0.35;;;8.60;91.50;;;;;;4349191;32;20118;-73
2023/03/28 11:05:00;;;;;;;0.30;0.30;;;8.20;91.70;;;;;;4346697;32;20149;-74
2023/03/28 11:07:52;;;;;;;0.30;0.30;;;8.60;92.80;;;;;;4352509;32;20107;-75
2023/03/28 11:10:46;;;;;;;0.30;0.30;;;8.90;92.00;;;;;;4342612;32;20211;-73
2023/03/28 11:13:51;;;;;;;0.30;0.30;;;9.10;93.00;;;;;;4349239;32;20110;-72
2023/03/28 11:16:38;;;;;;;0.30;0.30;;;9.20;91.00;;;;;;4339114;32;20078;-74
2023/03/28 11:19:35;;;;;;;0.30;0.30;;;9.10;92.30;;;;;;4359960;32;20114;-73
2023/03/28 11:22:40;;;;;;;0.30;0.30;;;9.50;91.00;;;;;;4346958;32;20472;-74
2023/03/28 11:25:40;;;;;;;0.30;0.30;;;9.40;89.80;;;;;;4341183;32;20086;-75
2023/03/28 11:28:47;;;;;;;0.30;0.30;;;9.00;91.10;;;;;;4345519;32;20160;-74
2023/03/28 11:31:28;;;;;;;0.30;0.30;;;8.30;89.30;;;;;;4331521;32;20215;-75
2023/03/28 11:33:57;;;;;;;;;;;8.60;90.70;;;;;;4351624;32;20826;-75
2023/03/28 11:36:32;;;;;;;0.30;0.30;;;9.40;87.90;;;;;;4349124;32;20019;-73
2023/03/28 11:39:10;;;;;;;0.70;0.70;;;9.40;85.60;;;;;;4344593;32;20098;-74
2023/03/28 11:41:40;;;;;;;0.25;0.25;;;9.40;87.20;;;;;;4347641;32;20132;-73
2023/03/28 11:44:30;;;;;;;0.30;0.30;;;9.40;86.60;;;;;;4353156;32;120858;-74
2023/03/28 11:47:02;;;;;;;0.30;0.30;;;9.30;87.00;;;;;;4347395;32;20090;-74
2023/03/28 11:49:40;;;;;;;0.30;0.30;;;9.80;88.20;;;;;;4353315;32;20121;-74
2023/03/28 11:52:14;;;;;;;0.40;0.40;;;10.30;87.00;;;;;;4358058;32;20146;-76
2023/03/28 11:55:05;;;;;;;0.30;0.30;;;10.60;85.60;;;;;;4359248;32;20070;-74
2023/03/28 11:57:41;;;;;;;0.40;0.40;;;10.40;84.60;;;;;;4355040;32;20584;-74
2023/03/28 12:00:35;;;;;;;0.40;0.40;;;10.00;83.50;;;;;;4359781;32;20081;-75
2023/03/28 12:03:29;;;;;;;0.30;0.30;;;9.90;90.10;;;;;;4342198;32;20748;-74
2023/03/28 12:06:21;;;;;;;0.30;0.30;;;9.10;83.70;;;;;;4345921;32;20101;-74
2023/03/28 12:08:55;;;;;;;2.72;0.62;;;9.50;86.80;;;;;;4344921;32;20094;-75
2023/03/28 12:11:49;;;;;;;0.25;0.25;;;10.50;83.20;;;;;;4356825;32;20504;-75
2023/03/28 12:14:40;;;;;;;0.30;0.30;;;10.90;82.50;;;;;;4345306;32;20097;-75
2023/03/28 12:17:17;;;;;;;0.20;0.20;;;11.60;80.80;;;;;;4350843;32;20128;-75
2023/03/28 12:19:42;;;;;;;0.40;0.40;;;11.80;78.30;;;;;;4359966;32;20138;-75
2023/03/28 12:22:33;;;;;;;0.30;0.30;;;11.90;76.80;;;;;;4362051;32;20550;-75
2023/03/28 12:25:10;;;;;;;0.30;0.30;;;12.80;78.40;;;;;;4335601;32;20089;-76
2023/03/28 12:28:00;;;;;;;0.30;0.30;;;13.70;74.80;;;;;;4354436;32;20160;-74
2023/03/28 12:30:47;;;;;;;0.40;0.40;;;13.80;70.50;;;;;;4354388;32;20127;-75
2023/03/28 12:33:42;;;;;;;0.40;0.40;;;13.60;71.80;;;;;;4360265;32;22158;-75
2023/03/28 12:36:25;;;;;;;0.30;0.30;;;13.90;71.10;;;;;;4356334;32;20099;-75
2023/03/28 12:39:02;;;;;;;0.30;0.30;;;14.10;69.50;;;;;;4356283;32;20554;-74
2023/03/28 12:41:32;;;;;;;0.30;0.30;;;14.00;70.40;;;;;;4368130;32;20531;-74
2023/03/28 12:44:11;;;;;;;0.32;0.32;;;13.80;74.00;;;;;;4361063;32;20094;-76
2023/03/28 12:46:46;;;;;;;0.30;0.30;;;14.60;67.40;;;;;;4369937;32;20797;-76
2023/03/28 12:49:20;;;;;;;0.32;0.32;;;15.10;66.30;;;;;;4370233;32;20325;-75
2023/03/28 12:51:50;;;;;;;0.30;0.30;;;14.20;65.20;;;;;;4369620;32;20150;-75
2023/03/28 12:54:22;;;;;;;0.30;0.30;;;13.50;67.10;;;;;;4371050;32;20495;-75
2023/03/28 12:57:07;;;;;;;0.40;0.40;;;13.40;70.50;;;;;;4369719;32;20514;-76
2023/03/28 12:59:40;;;;;;;0.30;0.30;;;13.70;68.00;;;;;;4358874;32;20114;-74
2023/03/28 13:02:17;;;;;;;0.28;0.28;;;14.30;65.70;;;;;;4371084;32;20554;-75
2023/03/28 13:05:13;;;;;;;0.30;0.30;;;14.50;65.40;;;;;;4368481;32;20185;-75
2023/03/28 13:07:54;;;;;;;0.30;0.30;;;15.00;63.10;;;;;;4370756;32;20821;-74
2023/03/28 13:10:28;;;;;;;0.30;0.30;;;15.50;61.80;;;;;;4369912;32;20082;-74
2023/03/28 13:13:09;;;;;;;0.30;0.30;;;15.40;63.50;;;;;;4367127;32;20445;-75
2023/03/28 13:15:52;;;;;;;0.30;0.30;;;15.60;60.10;;;;;;4369683;32;20550;-75
2023/03/28 13:18:20;;;;;;;0.30;0.30;;;15.80;64.70;;;;;;4370708;32;20110;-75
2023/03/28 13:20:47;;;;;;;0.30;0.30;;;15.90;61.00;;;;;;4368690;32;20089;-73